createdAt,value
2022-12-25T00:00:29.734Z,24.25
2022-12-25T00:01:05.335Z,25.83
2022-12-25T00:01:36.829Z,21.70
2022-12-25T00:02:08.224Z,20.02
2022-12-25T00:02:39.641Z,21.98
2022-12-25T00:03:11.122Z,23.05
2022-12-25T00:03:42.766Z,22.65
2022-12-25T00:04:14.368Z,19.58
2022-12-25T00:04:45.939Z,23.17
2022-12-25T00:05:17.439Z,24.75
2022-12-25T00:05:48.870Z,21.92
2022-12-25T00:06:20.295Z,23.95
2022-12-25T00:06:51.695Z,20.60
2022-12-25T00:07:23.125Z,22.55
2022-12-25T00:07:54.604Z,22.73
2022-12-25T00:08:25.983Z,20.27
2022-12-25T00:08:57.390Z,24.85
2022-12-25T00:09:28.901Z,21.42
2022-12-25T00:10:00.315Z,23.13
2022-12-25T00:10:31.665Z,23.23
2022-12-25T00:11:04.716Z,23.67
2022-12-25T00:11:36.091Z,21.50
2022-12-25T00:12:07.427Z,22.87
2022-12-25T00:12:38.951Z,24.30
2022-12-25T00:13:10.328Z,21.42
2022-12-25T00:13:42.276Z,23.90
2022-12-25T00:14:13.625Z,23.52
2022-12-25T00:14:45.217Z,21.27
2022-12-25T00:15:17.804Z,21.58
2022-12-25T00:15:49.200Z,22.42
2022-12-25T00:16:22.110Z,21.55
2022-12-25T00:16:53.567Z,21.53
2022-12-25T00:17:25.043Z,20.35
2022-12-25T00:17:56.435Z,21.08
2022-12-25T00:18:28.167Z,21.33
2022-12-25T00:18:59.580Z,19.40
2022-12-25T00:19:30.985Z,19.52
2022-12-25T00:20:02.475Z,21.05
2022-12-25T00:20:36.182Z,19.70
2022-12-25T00:21:07.630Z,19.23
2022-12-25T00:21:39.061Z,20.63
2022-12-25T00:22:10.434Z,21.90
2022-12-25T00:22:41.788Z,20.23
2022-12-25T00:23:13.155Z,21.77
2022-12-25T00:23:44.524Z,20.58
2022-12-25T00:24:16.079Z,22.67
2022-12-25T00:24:47.856Z,18.92
2022-12-25T00:25:19.222Z,20.30
2022-12-25T00:25:50.740Z,21.48
2022-12-25T00:26:22.419Z,20.35
2022-12-25T00:26:53.867Z,23.73
2022-12-25T00:27:25.246Z,20.07
2022-12-25T00:27:56.609Z,19.90
2022-12-25T00:28:27.955Z,22.88
2022-12-25T00:28:59.310Z,21.35
2022-12-25T00:29:31.919Z,22.33
2022-12-25T00:30:06.350Z,24.02
2022-12-25T00:30:37.824Z,21.90
2022-12-25T00:31:10.585Z,21.40
2022-12-25T00:31:42.009Z,23.23
2022-12-25T00:32:13.387Z,19.77
2022-12-25T00:32:44.844Z,21.33
2022-12-25T00:33:16.475Z,22.17
2022-12-25T00:33:48.680Z,21.02
2022-12-25T00:34:20.250Z,23.05
2022-12-25T00:34:51.620Z,23.92
2022-12-25T00:35:22.969Z,22.27
2022-12-25T00:36:01.094Z,23.45
2022-12-25T00:36:37.788Z,21.80
2022-12-25T00:37:12.781Z,23.30
2022-12-25T00:37:44.154Z,22.02
2022-12-25T00:38:15.503Z,23.88
2022-12-25T00:38:46.928Z,22.92
2022-12-25T00:39:18.423Z,22.92
2022-12-25T00:39:49.844Z,21.73
2022-12-25T00:40:21.192Z,22.52
2022-12-25T00:40:52.578Z,22.58
2022-12-25T00:41:24.429Z,28.08
2022-12-25T00:41:55.785Z,25.52
2022-12-25T00:42:27.160Z,22.05
2022-12-25T00:42:58.512Z,23.00
2022-12-25T00:43:29.911Z,20.77
2022-12-25T00:44:01.267Z,23.63
2022-12-25T00:44:32.683Z,22.50
2022-12-25T00:45:04.268Z,21.90
2022-12-25T00:45:35.699Z,20.05
2022-12-25T00:46:07.170Z,20.17
2022-12-25T00:46:38.722Z,20.77
2022-12-25T00:47:10.199Z,21.10
2022-12-25T00:47:41.636Z,21.33
2022-12-25T00:48:13.109Z,19.85
2022-12-25T00:48:44.459Z,22.83
2022-12-25T00:49:15.820Z,20.92
2022-12-25T00:49:47.175Z,20.37
2022-12-25T00:50:18.788Z,19.40
2022-12-25T00:50:53.382Z,20.77
2022-12-25T00:51:24.864Z,19.92
2022-12-25T00:51:56.984Z,18.55
2022-12-25T00:52:28.394Z,19.63
2022-12-25T00:52:59.775Z,21.08
2022-12-25T00:53:31.382Z,20.48
2022-12-25T00:54:03.096Z,20.13
2022-12-25T00:54:34.536Z,19.85
2022-12-25T00:55:06.154Z,20.40
2022-12-25T00:55:37.557Z,19.08
2022-12-25T00:56:10.209Z,17.90
2022-12-25T00:56:41.614Z,19.38
2022-12-25T00:57:13.037Z,18.58
2022-12-25T00:57:44.469Z,17.67
2022-12-25T00:58:16.013Z,18.65
2022-12-25T00:58:47.390Z,19.88
2022-12-25T00:59:18.829Z,18.60
2022-12-25T00:59:50.316Z,19.77
2022-12-25T01:00:23.426Z,17.77
2022-12-25T01:00:54.898Z,17.20
2022-12-25T01:01:26.487Z,19.77
2022-12-25T01:01:58.159Z,19.27
2022-12-25T01:02:29.807Z,20.17
2022-12-25T01:03:01.482Z,20.23
2022-12-25T01:03:33.668Z,16.88
2022-12-25T01:04:05.619Z,20.80
2022-12-25T01:04:37.025Z,20.30
2022-12-25T01:05:08.686Z,17.35
2022-12-25T01:05:40.218Z,20.52
2022-12-25T01:06:11.596Z,19.17
2022-12-25T01:06:42.950Z,22.83
2022-12-25T01:07:14.373Z,18.45
2022-12-25T01:07:45.794Z,18.20
2022-12-25T01:08:17.191Z,21.05
2022-12-25T01:08:48.604Z,19.80
2022-12-25T01:09:19.940Z,17.55
2022-12-25T01:09:51.350Z,20.98
2022-12-25T01:10:22.746Z,18.65
2022-12-25T01:10:58.573Z,17.23
2022-12-25T01:11:30.095Z,21.50
2022-12-25T01:12:01.489Z,18.20
2022-12-25T01:12:34.269Z,18.90
2022-12-25T01:13:05.728Z,19.95
2022-12-25T01:13:37.304Z,16.77
2022-12-25T01:14:08.709Z,21.48
2022-12-25T01:14:40.043Z,18.70
2022-12-25T01:15:12.058Z,19.20
2022-12-25T01:15:43.431Z,17.67
2022-12-25T01:16:14.795Z,20.48
2022-12-25T01:16:46.558Z,18.00
2022-12-25T01:17:18.031Z,18.83
2022-12-25T01:17:49.393Z,18.95
2022-12-25T01:18:21.446Z,18.10
2022-12-25T01:18:52.831Z,16.77
2022-12-25T01:19:24.177Z,19.85
2022-12-25T01:19:55.533Z,15.23
2022-12-25T01:20:26.916Z,20.85
2022-12-25T01:20:58.273Z,18.60
2022-12-25T01:21:30.034Z,18.60
2022-12-25T01:22:01.404Z,18.08
2022-12-25T01:22:32.870Z,19.75
2022-12-25T01:23:04.255Z,18.05
2022-12-25T01:23:37.404Z,16.80
2022-12-25T01:24:08.756Z,20.70
2022-12-25T01:24:40.118Z,17.90
2022-12-25T01:25:12.523Z,18.75
2022-12-25T01:25:43.875Z,17.85
2022-12-25T01:26:16.134Z,18.58
2022-12-25T01:26:47.537Z,17.38
2022-12-25T01:27:18.912Z,16.52
2022-12-25T01:27:50.268Z,16.65
2022-12-25T01:28:21.667Z,15.02
2022-12-25T01:28:53.356Z,16.75
2022-12-25T01:29:24.732Z,16.50
2022-12-25T01:29:56.084Z,15.50
2022-12-25T01:30:27.481Z,13.52
2022-12-25T01:30:58.914Z,17.63
2022-12-25T01:31:30.340Z,14.85
2022-12-25T01:32:01.782Z,16.88
2022-12-25T01:32:33.336Z,17.70
2022-12-25T01:33:04.703Z,15.95
2022-12-25T01:33:36.123Z,17.42
2022-12-25T01:34:07.509Z,16.95
2022-12-25T01:34:38.885Z,13.90
2022-12-25T01:35:10.349Z,16.05
2022-12-25T01:35:41.794Z,15.48
2022-12-25T01:36:17.050Z,18.23
2022-12-25T01:36:48.380Z,16.65
2022-12-25T01:37:19.706Z,16.92
2022-12-25T01:37:51.358Z,15.73
2022-12-25T01:38:22.687Z,14.90
2022-12-25T01:38:54.386Z,14.55
2022-12-25T01:39:25.785Z,14.45
2022-12-25T01:39:57.183Z,13.90
2022-12-25T01:40:28.524Z,17.38
2022-12-25T01:40:59.945Z,17.45
2022-12-25T01:41:31.363Z,16.33
2022-12-25T01:42:02.867Z,16.30
2022-12-25T01:42:34.554Z,15.25
2022-12-25T01:43:17.032Z,15.52
2022-12-25T01:43:56.315Z,14.57
2022-12-25T01:44:36.858Z,14.77
2022-12-25T01:45:26.837Z,15.43
2022-12-25T01:45:58.323Z,13.57
2022-12-25T01:46:30.245Z,14.27
2022-12-25T01:47:02.130Z,16.10
2022-12-25T01:47:33.510Z,14.15
2022-12-25T01:48:06.594Z,13.70
2022-12-25T01:48:39.075Z,12.98
2022-12-25T01:49:16.228Z,16.55
2022-12-25T01:49:49.694Z,16.25
2022-12-25T01:50:21.156Z,14.67
2022-12-25T01:51:12.759Z,14.93
2022-12-25T01:51:46.968Z,12.48
2022-12-25T01:52:23.847Z,12.30
2022-12-25T01:52:56.358Z,14.77
2022-12-25T01:53:27.863Z,12.70
2022-12-25T01:54:02.085Z,16.52
2022-12-25T01:54:34.941Z,15.32
2022-12-25T01:55:07.057Z,14.70
2022-12-25T01:55:40.049Z,11.95
2022-12-25T01:56:11.757Z,13.70
2022-12-25T01:56:44.176Z,13.90
2022-12-25T01:57:17.726Z,12.82
2022-12-25T01:57:49.114Z,15.73
2022-12-25T01:58:20.978Z,11.07
2022-12-25T01:58:52.590Z,14.50
2022-12-25T01:59:25.116Z,12.32
2022-12-25T01:59:57.105Z,12.48
2022-12-25T02:00:28.512Z,11.45
2022-12-25T02:00:59.907Z,11.93
2022-12-25T02:01:31.947Z,12.02
2022-12-25T02:02:03.767Z,13.38
2022-12-25T02:02:36.038Z,12.93
2022-12-25T02:03:07.525Z,11.88
2022-12-25T02:03:38.991Z,14.60
2022-12-25T02:04:15.710Z,13.82
2022-12-25T02:05:07.291Z,11.15
2022-12-25T02:05:38.679Z,14.00
2022-12-25T02:06:10.039Z,13.70
2022-12-25T02:06:41.718Z,12.88
2022-12-25T02:07:14.696Z,14.13
2022-12-25T02:07:46.483Z,13.05
2022-12-25T02:08:19.026Z,13.07
2022-12-25T02:08:50.483Z,11.95
2022-12-25T02:09:21.871Z,13.73
2022-12-25T02:09:53.612Z,11.48
2022-12-25T02:10:25.096Z,13.73
2022-12-25T02:10:56.546Z,13.38
2022-12-25T02:11:27.907Z,12.10
2022-12-25T02:12:00.244Z,13.98
2022-12-25T02:12:34.098Z,11.98
2022-12-25T02:13:06.027Z,12.15
2022-12-25T02:13:37.375Z,11.57
2022-12-25T02:14:08.800Z,11.88
2022-12-25T02:14:40.206Z,11.25
2022-12-25T02:15:19.304Z,15.95
2022-12-25T02:15:50.700Z,12.27
2022-12-25T02:16:22.723Z,13.32
2022-12-25T02:16:59.823Z,13.02
2022-12-25T02:17:31.284Z,12.80
2022-12-25T02:18:16.404Z,12.02
2022-12-25T02:18:53.995Z,13.60
2022-12-25T02:19:43.046Z,17.60
2022-12-25T02:20:37.721Z,11.32
2022-12-25T02:21:14.836Z,11.77
2022-12-25T02:21:46.144Z,13.75
2022-12-25T02:22:36.334Z,14.68
2022-12-25T02:23:13.551Z,11.82
2022-12-25T02:23:45.007Z,11.23
2022-12-25T02:24:22.454Z,11.88
2022-12-25T02:24:56.551Z,14.07
2022-12-25T02:25:46.840Z,11.38
2022-12-25T02:26:33.410Z,11.13
2022-12-25T02:27:07.893Z,11.90
2022-12-25T02:27:57.877Z,11.57
2022-12-25T02:28:37.031Z,11.93
2022-12-25T02:29:27.323Z,10.75
2022-12-25T02:30:01.778Z,10.65
2022-12-25T02:30:35.614Z,9.73
2022-12-25T02:31:27.271Z,11.98
2022-12-25T02:32:04.910Z,12.90
2022-12-25T02:32:42.157Z,11.55
2022-12-25T02:33:15.589Z,11.68
2022-12-25T02:33:46.943Z,12.13
2022-12-25T02:34:26.079Z,11.98
2022-12-25T02:35:23.605Z,12.18
2022-12-25T02:35:55.623Z,14.07
2022-12-25T02:36:28.265Z,10.65
2022-12-25T02:37:07.881Z,9.85
2022-12-25T02:37:53.003Z,12.35
2022-12-25T02:38:27.065Z,9.98
2022-12-25T02:39:00.489Z,12.20
2022-12-25T02:39:41.132Z,10.15
2022-12-25T02:40:12.489Z,12.52
2022-12-25T02:40:47.732Z,11.40
2022-12-25T02:41:19.132Z,10.05
2022-12-25T02:41:52.833Z,10.15
2022-12-25T02:42:27.362Z,11.27
2022-12-25T02:43:13.325Z,11.27
2022-12-25T02:43:46.114Z,13.23
2022-12-25T02:44:19.554Z,12.32
2022-12-25T02:44:51.282Z,11.30
2022-12-25T02:45:31.398Z,9.10
2022-12-25T02:46:10.121Z,9.32
2022-12-25T02:46:41.904Z,9.88
2022-12-25T02:47:13.601Z,12.88
2022-12-25T02:47:45.070Z,9.13
2022-12-25T02:48:17.729Z,10.60
2022-12-25T02:48:53.394Z,11.32
2022-12-25T02:49:26.754Z,10.20
2022-12-25T02:49:58.710Z,11.95
2022-12-25T02:50:30.206Z,9.60
2022-12-25T02:51:03.623Z,12.68
2022-12-25T02:51:37.190Z,8.97
2022-12-25T02:52:13.794Z,10.75
2022-12-25T02:52:46.024Z,10.75
2022-12-25T02:53:17.408Z,10.10
2022-12-25T02:53:50.430Z,12.77
2022-12-25T02:54:25.116Z,9.15
2022-12-25T02:55:01.580Z,11.53
2022-12-25T02:55:35.402Z,12.07
2022-12-25T02:56:06.933Z,9.85
2022-12-25T02:56:39.561Z,8.90
2022-12-25T02:57:12.520Z,11.95
2022-12-25T02:57:46.251Z,9.95
2022-12-25T02:58:19.627Z,9.40
2022-12-25T02:58:51.027Z,10.30
2022-12-25T02:59:23.064Z,13.35
2022-12-25T02:59:55.963Z,12.70
2022-12-25T03:00:27.408Z,12.13
2022-12-25T03:01:07.025Z,9.77
2022-12-25T03:01:38.510Z,12.88
2022-12-25T03:02:10.522Z,12.02
2022-12-25T03:02:42.663Z,11.65
2022-12-25T03:03:14.749Z,10.07
2022-12-25T03:03:47.925Z,11.07
2022-12-25T03:04:21.610Z,11.00
2022-12-25T03:04:54.131Z,10.90
2022-12-25T03:05:26.864Z,11.63
2022-12-25T03:06:01.256Z,10.52
2022-12-25T03:06:33.444Z,11.23
2022-12-25T03:07:31.256Z,12.43
2022-12-25T03:08:04.654Z,9.30
2022-12-25T03:08:38.140Z,7.88
2022-12-25T03:09:11.947Z,11.25
2022-12-25T03:09:48.978Z,11.13
2022-12-25T03:10:21.333Z,10.55
2022-12-25T03:10:57.787Z,10.82
2022-12-25T03:11:29.156Z,14.48
2022-12-25T03:12:20.938Z,10.82
2022-12-25T03:12:52.465Z,11.63
2022-12-25T03:13:25.639Z,11.82
2022-12-25T03:14:00.321Z,10.90
2022-12-25T03:14:31.849Z,10.73
2022-12-25T03:15:04.247Z,9.77
2022-12-25T03:15:35.609Z,12.53
2022-12-25T03:16:07.554Z,9.73
2022-12-25T03:16:39.044Z,10.38
2022-12-25T03:17:10.570Z,11.60
2022-12-25T03:17:42.163Z,11.05
2022-12-25T03:18:15.331Z,12.50
2022-12-25T03:18:46.767Z,12.40
2022-12-25T03:19:18.718Z,12.00
2022-12-25T03:19:50.146Z,9.82
2022-12-25T03:20:21.484Z,12.73
2022-12-25T03:20:53.747Z,11.48
2022-12-25T03:21:25.271Z,12.02
2022-12-25T03:21:57.076Z,11.73
2022-12-25T03:22:29.916Z,13.57
2022-12-25T03:23:01.291Z,9.73
2022-12-25T03:23:34.058Z,12.15
2022-12-25T03:24:05.583Z,11.50
2022-12-25T03:24:36.935Z,11.07
2022-12-25T03:25:08.751Z,11.85
2022-12-25T03:25:40.743Z,10.07
2022-12-25T03:26:12.223Z,10.68
2022-12-25T03:26:43.995Z,10.95
2022-12-25T03:27:15.663Z,13.38
2022-12-25T03:27:49.066Z,11.35
2022-12-25T03:28:20.393Z,14.30
2022-12-25T03:28:51.780Z,11.90
2022-12-25T03:29:31.761Z,10.75
2022-12-25T03:30:03.672Z,11.02
2022-12-25T03:30:37.844Z,11.07
2022-12-25T03:31:15.001Z,12.10
2022-12-25T03:31:50.556Z,11.27
2022-12-25T03:32:21.872Z,13.73
2022-12-25T03:32:56.242Z,12.10
2022-12-25T03:33:46.719Z,11.25
2022-12-25T03:34:23.971Z,12.35
2022-12-25T03:34:58.119Z,12.98
2022-12-25T03:35:37.574Z,11.45
2022-12-25T03:36:26.563Z,14.35
2022-12-25T03:37:00.694Z,10.13
2022-12-25T03:37:44.721Z,10.13
2022-12-25T03:38:22.645Z,9.88
2022-12-25T03:39:23.163Z,12.13
2022-12-25T03:39:54.522Z,12.93
2022-12-25T03:40:25.884Z,10.25
2022-12-25T03:41:03.816Z,10.88
2022-12-25T03:41:35.236Z,12.00
2022-12-25T03:42:07.208Z,12.52
2022-12-25T03:42:43.507Z,12.90
2022-12-25T03:43:47.063Z,10.83
2022-12-25T03:44:27.389Z,11.52
2022-12-25T03:45:08.293Z,9.95
2022-12-25T03:45:42.601Z,11.18
2022-12-25T03:46:16.176Z,12.27
2022-12-25T03:46:51.151Z,11.95
2022-12-25T03:47:25.660Z,11.20
2022-12-25T03:47:57.196Z,12.30
2022-12-25T03:48:30.596Z,12.18
2022-12-25T03:49:14.766Z,14.05
2022-12-25T03:49:57.447Z,11.27
2022-12-25T03:50:28.822Z,14.57
2022-12-25T03:51:03.459Z,15.75
2022-12-25T03:51:36.550Z,11.93
2022-12-25T03:52:09.205Z,10.38
2022-12-25T03:52:41.091Z,12.18
2022-12-25T03:53:21.811Z,13.75
2022-12-25T03:53:57.148Z,12.55
2022-12-25T03:54:30.638Z,12.77
2022-12-25T03:55:03.574Z,12.02
2022-12-25T03:55:35.879Z,12.82
2022-12-25T03:56:07.543Z,12.27
2022-12-25T03:56:39.293Z,13.00
2022-12-25T03:57:11.770Z,12.60
2022-12-25T03:57:43.194Z,12.90
2022-12-25T03:58:18.565Z,11.52
2022-12-25T03:58:51.522Z,10.90
2022-12-25T03:59:24.351Z,11.60
2022-12-25T03:59:56.299Z,10.23
2022-12-25T04:00:27.705Z,10.38
2022-12-25T04:00:59.071Z,11.23
2022-12-25T04:01:30.513Z,12.98
2022-12-25T04:02:02.079Z,12.40
2022-12-25T04:02:33.836Z,11.03
2022-12-25T04:03:05.343Z,12.27
2022-12-25T04:03:36.821Z,11.20
2022-12-25T04:04:08.207Z,11.25
2022-12-25T04:04:39.652Z,11.80
2022-12-25T04:05:11.026Z,10.35
2022-12-25T04:05:42.388Z,10.60
2022-12-25T04:06:13.757Z,11.10
2022-12-25T04:06:45.115Z,13.68
2022-12-25T04:07:16.497Z,10.65
2022-12-25T04:07:47.835Z,15.52
2022-12-25T04:08:19.161Z,10.63
2022-12-25T04:08:50.537Z,13.93
2022-12-25T04:09:21.907Z,10.65
2022-12-25T04:09:53.417Z,8.38
2022-12-25T04:10:25.042Z,10.57
2022-12-25T04:10:56.409Z,10.38
2022-12-25T04:11:27.810Z,10.88
2022-12-25T04:12:02.795Z,9.82
2022-12-25T04:12:34.492Z,11.05
2022-12-25T04:13:05.877Z,11.73
2022-12-25T04:13:37.256Z,10.88
2022-12-25T04:14:08.627Z,12.85
2022-12-25T04:14:39.971Z,11.60
2022-12-25T04:15:11.343Z,10.50
2022-12-25T04:15:42.697Z,10.57
2022-12-25T04:16:14.107Z,11.48
2022-12-25T04:16:45.607Z,10.60
2022-12-25T04:17:16.973Z,11.82
2022-12-25T04:17:51.770Z,11.57
2022-12-25T04:18:23.249Z,10.68
2022-12-25T04:18:54.610Z,12.60
2022-12-25T04:19:25.922Z,10.30
2022-12-25T04:19:57.299Z,11.68
2022-12-25T04:20:28.675Z,10.73
2022-12-25T04:21:00.032Z,10.95
2022-12-25T04:21:31.401Z,15.02
2022-12-25T04:22:02.785Z,10.45
2022-12-25T04:22:34.152Z,12.20
2022-12-25T04:23:05.505Z,11.40
2022-12-25T04:23:36.860Z,9.32
2022-12-25T04:24:09.364Z,11.07
2022-12-25T04:24:40.942Z,11.10
2022-12-25T04:25:12.330Z,11.00
2022-12-25T04:25:43.678Z,11.15
2022-12-25T04:26:15.073Z,11.15
2022-12-25T04:26:46.454Z,12.13
2022-12-25T04:27:17.922Z,13.98
2022-12-25T04:27:49.281Z,12.95
2022-12-25T04:28:20.623Z,10.93
2022-12-25T04:28:51.989Z,11.25
2022-12-25T04:29:23.368Z,11.85
2022-12-25T04:29:54.728Z,11.70
2022-12-25T04:30:26.052Z,12.50
2022-12-25T04:31:00.270Z,12.18
2022-12-25T04:31:31.650Z,12.30
2022-12-25T04:32:03.066Z,11.95
2022-12-25T04:32:34.434Z,13.25
2022-12-25T04:33:05.797Z,12.10
2022-12-25T04:33:37.143Z,13.13
2022-12-25T04:34:08.513Z,11.35
2022-12-25T04:34:39.927Z,13.60
2022-12-25T04:35:11.362Z,13.13
2022-12-25T04:35:46.278Z,12.07
2022-12-25T04:36:17.643Z,11.27
2022-12-25T04:36:49.000Z,10.03
2022-12-25T04:37:20.351Z,12.23
2022-12-25T04:37:51.745Z,14.77
2022-12-25T04:38:23.134Z,11.25
2022-12-25T04:38:54.507Z,12.90
2022-12-25T04:39:25.848Z,10.85
2022-12-25T04:39:57.219Z,12.82
2022-12-25T04:40:28.611Z,11.32
2022-12-25T04:41:00.661Z,10.98
2022-12-25T04:41:32.049Z,12.80
2022-12-25T04:42:03.433Z,11.10
2022-12-25T04:42:34.878Z,11.82
2022-12-25T04:43:06.257Z,9.60
2022-12-25T04:43:37.637Z,10.75
2022-12-25T04:44:09.334Z,11.30
2022-12-25T04:44:40.692Z,10.45
2022-12-25T04:45:12.124Z,11.75
2022-12-25T04:45:51.545Z,10.63
2022-12-25T04:46:22.936Z,11.95
2022-12-25T04:46:54.365Z,11.40
2022-12-25T04:47:25.787Z,13.43
2022-12-25T04:47:59.424Z,10.25
2022-12-25T04:48:31.923Z,11.10
2022-12-25T04:49:03.293Z,9.18
2022-12-25T04:49:34.683Z,11.27
2022-12-25T04:50:06.471Z,13.73
2022-12-25T04:50:37.903Z,12.85
2022-12-25T04:51:10.146Z,11.82
2022-12-25T04:51:41.621Z,10.65
2022-12-25T04:52:13.063Z,11.10
2022-12-25T04:52:44.519Z,11.45
2022-12-25T04:53:17.041Z,12.15
2022-12-25T04:53:49.000Z,10.98
2022-12-25T04:54:20.525Z,11.63
2022-12-25T04:54:54.303Z,10.45
2022-12-25T04:55:25.723Z,10.93
2022-12-25T04:56:03.011Z,11.63
2022-12-25T04:56:38.562Z,11.15
2022-12-25T04:57:13.198Z,13.30
2022-12-25T04:57:45.012Z,11.15
2022-12-25T04:58:16.362Z,9.88
2022-12-25T04:58:47.807Z,10.50
2022-12-25T04:59:19.179Z,11.30
2022-12-25T04:59:50.519Z,11.52
2022-12-25T05:00:21.960Z,11.02
2022-12-25T05:00:53.375Z,11.35
2022-12-25T05:01:24.967Z,10.23
2022-12-25T05:01:56.507Z,9.02
2022-12-25T05:02:28.052Z,11.30
2022-12-25T05:02:59.787Z,11.27
2022-12-25T05:03:31.741Z,12.57
2022-12-25T05:04:03.065Z,12.35
2022-12-25T05:04:34.485Z,12.27
2022-12-25T05:05:05.960Z,13.25
2022-12-25T05:05:39.052Z,11.02
2022-12-25T05:06:10.437Z,13.13
2022-12-25T05:06:41.770Z,11.43
2022-12-25T05:07:13.142Z,13.40
2022-12-25T05:07:44.536Z,11.00
2022-12-25T05:08:15.939Z,11.70
2022-12-25T05:08:47.309Z,12.50
2022-12-25T05:09:18.678Z,12.30
2022-12-25T05:09:50.082Z,11.63
2022-12-25T05:10:21.426Z,11.95
2022-12-25T05:10:52.812Z,11.13
2022-12-25T05:11:24.179Z,12.13
2022-12-25T05:11:55.528Z,11.32
2022-12-25T05:12:26.879Z,12.75
2022-12-25T05:12:58.201Z,9.95
2022-12-25T05:13:29.540Z,11.93
2022-12-25T05:14:00.896Z,12.20
2022-12-25T05:14:32.358Z,11.07
2022-12-25T05:15:03.935Z,10.75
2022-12-25T05:15:35.287Z,10.68
2022-12-25T05:16:11.747Z,10.98
2022-12-25T05:16:43.187Z,10.50
2022-12-25T05:17:14.622Z,13.27
2022-12-25T05:17:45.993Z,11.93
2022-12-25T05:18:17.431Z,12.18
2022-12-25T05:18:50.153Z,9.40
2022-12-25T05:19:21.526Z,12.90
2022-12-25T05:19:52.926Z,12.55
2022-12-25T05:20:24.332Z,11.23
2022-12-25T05:20:55.690Z,11.27
2022-12-25T05:21:27.032Z,12.75
2022-12-25T05:21:58.410Z,9.35
2022-12-25T05:22:29.798Z,10.77
2022-12-25T05:23:01.193Z,12.38
2022-12-25T05:23:32.595Z,8.50
2022-12-25T05:24:04.067Z,11.38
2022-12-25T05:24:35.508Z,11.30
2022-12-25T05:25:07.076Z,12.00
2022-12-25T05:25:39.604Z,10.80
2022-12-25T05:26:10.976Z,10.18
2022-12-25T05:26:42.304Z,10.85
2022-12-25T05:27:14.494Z,9.95
2022-12-25T05:27:50.280Z,10.68
2022-12-25T05:28:25.196Z,9.93
2022-12-25T05:28:56.604Z,10.05
2022-12-25T05:29:28.262Z,10.63
2022-12-25T05:29:59.639Z,12.07
2022-12-25T05:30:31.039Z,12.10
2022-12-25T05:31:02.823Z,13.10
2022-12-25T05:31:34.293Z,10.23
2022-12-25T05:32:05.749Z,11.30
2022-12-25T05:32:37.142Z,11.70
2022-12-25T05:33:08.542Z,11.23
2022-12-25T05:33:41.167Z,12.48
2022-12-25T05:34:12.524Z,11.18
2022-12-25T05:34:43.897Z,10.95
2022-12-25T05:35:15.307Z,10.10
2022-12-25T05:35:46.683Z,10.35
2022-12-25T05:36:18.055Z,11.35
2022-12-25T05:36:49.387Z,11.73
2022-12-25T05:37:20.732Z,9.50
2022-12-25T05:37:52.092Z,10.00
2022-12-25T05:38:23.414Z,11.53
2022-12-25T05:38:54.987Z,9.35
2022-12-25T05:39:26.354Z,9.90
2022-12-25T05:39:57.686Z,10.57
2022-12-25T05:40:29.037Z,10.52
2022-12-25T05:41:00.502Z,9.57
2022-12-25T05:41:34.441Z,10.53
2022-12-25T05:42:06.387Z,9.45
2022-12-25T05:42:37.818Z,14.25
2022-12-25T05:43:09.414Z,8.95
2022-12-25T05:43:40.794Z,12.93
2022-12-25T05:44:12.194Z,10.50
2022-12-25T05:44:43.541Z,11.30
2022-12-25T05:45:14.893Z,10.07
2022-12-25T05:45:46.300Z,10.05
2022-12-25T05:46:17.797Z,8.40
2022-12-25T05:46:49.255Z,11.23
2022-12-25T05:47:20.747Z,9.73
2022-12-25T05:47:52.448Z,9.55
2022-12-25T05:48:23.817Z,9.95
2022-12-25T05:48:55.244Z,10.33
2022-12-25T05:49:26.623Z,10.10
2022-12-25T05:49:58.012Z,10.45
2022-12-25T05:50:29.517Z,9.32
2022-12-25T05:51:04.869Z,12.27
2022-12-25T05:51:36.286Z,11.57
2022-12-25T05:52:07.710Z,9.95
2022-12-25T05:52:39.284Z,10.07
2022-12-25T05:53:11.958Z,13.20
2022-12-25T05:53:43.450Z,9.97
2022-12-25T05:54:14.816Z,8.90
2022-12-25T05:54:46.181Z,12.05
2022-12-25T05:55:17.607Z,10.70
2022-12-25T05:55:49.084Z,10.60
2022-12-25T05:56:20.452Z,9.32
2022-12-25T05:56:51.922Z,11.13
2022-12-25T05:57:23.279Z,8.88
2022-12-25T05:57:54.645Z,9.77
2022-12-25T05:58:26.019Z,8.65
2022-12-25T05:58:57.424Z,10.75
2022-12-25T05:59:29.814Z,10.32
2022-12-25T06:00:01.175Z,10.50
2022-12-25T06:00:33.032Z,9.43
2022-12-25T06:01:09.582Z,10.75
2022-12-25T06:01:41.109Z,10.60
2022-12-25T06:02:12.794Z,9.43
2022-12-25T06:02:44.418Z,10.48
2022-12-25T06:03:15.947Z,11.18
2022-12-25T06:03:47.446Z,8.52
2022-12-25T06:04:18.923Z,9.43
2022-12-25T06:04:50.607Z,9.23
2022-12-25T06:05:22.056Z,8.35
2022-12-25T06:05:53.742Z,11.68
2022-12-25T06:06:25.221Z,10.00
2022-12-25T06:06:56.607Z,9.88
2022-12-25T06:07:28.010Z,9.73
2022-12-25T06:07:59.352Z,10.23
2022-12-25T06:08:30.764Z,10.57
2022-12-25T06:09:02.118Z,9.73
2022-12-25T06:09:33.487Z,8.70
2022-12-25T06:10:05.319Z,11.35
2022-12-25T06:10:36.967Z,10.68
2022-12-25T06:11:09.709Z,9.85
2022-12-25T06:11:41.429Z,9.40
2022-12-25T06:12:12.911Z,9.07
2022-12-25T06:12:44.267Z,11.88
2022-12-25T06:13:15.656Z,10.25
2022-12-25T06:13:49.456Z,9.45
2022-12-25T06:14:20.989Z,10.82
2022-12-25T06:14:52.387Z,10.48
2022-12-25T06:15:23.798Z,10.40
2022-12-25T06:15:55.211Z,9.10
2022-12-25T06:16:26.585Z,10.77
2022-12-25T06:16:58.012Z,11.55
2022-12-25T06:17:29.419Z,10.45
2022-12-25T06:18:01.130Z,9.30
2022-12-25T06:18:34.903Z,11.60
2022-12-25T06:19:06.653Z,9.20
2022-12-25T06:19:38.109Z,8.83
2022-12-25T06:20:09.740Z,8.27
2022-12-25T06:20:41.264Z,9.13
2022-12-25T06:21:13.640Z,9.32
2022-12-25T06:21:45.298Z,9.60
2022-12-25T06:22:16.669Z,9.77
2022-12-25T06:22:48.371Z,9.75
2022-12-25T06:23:19.965Z,13.02
2022-12-25T06:23:51.397Z,8.43
2022-12-25T06:24:23.504Z,8.88
2022-12-25T06:24:54.975Z,9.77
2022-12-25T06:25:26.318Z,11.07
2022-12-25T06:25:57.701Z,9.18
2022-12-25T06:26:29.155Z,10.43
2022-12-25T06:27:00.529Z,9.38
2022-12-25T06:27:32.034Z,10.52
2022-12-25T06:28:03.602Z,10.07
2022-12-25T06:28:35.540Z,12.35
2022-12-25T06:29:06.896Z,11.57
2022-12-25T06:29:38.250Z,9.48
2022-12-25T06:30:09.866Z,8.88
2022-12-25T06:30:41.221Z,9.95
2022-12-25T06:31:14.283Z,13.85
2022-12-25T06:31:46.128Z,10.77
2022-12-25T06:32:17.840Z,10.38
2022-12-25T06:32:49.280Z,11.27
2022-12-25T06:33:20.763Z,11.45
2022-12-25T06:33:52.330Z,12.02
2022-12-25T06:34:23.737Z,12.20
2022-12-25T06:34:55.161Z,11.57
2022-12-25T06:35:26.588Z,11.13
2022-12-25T06:35:57.973Z,12.10
2022-12-25T06:36:29.397Z,11.27
2022-12-25T06:37:00.851Z,14.70
2022-12-25T06:37:32.374Z,17.38
2022-12-25T06:38:03.761Z,10.38
2022-12-25T06:38:35.123Z,11.02
2022-12-25T06:39:06.522Z,12.93
2022-12-25T06:39:37.868Z,11.32
2022-12-25T06:40:09.348Z,10.27
2022-12-25T06:40:40.743Z,12.10
2022-12-25T06:41:13.405Z,10.68
2022-12-25T06:41:44.794Z,11.32
2022-12-25T06:42:16.131Z,10.10
2022-12-25T06:42:47.493Z,10.05
2022-12-25T06:43:18.857Z,13.00
2022-12-25T06:43:54.227Z,10.63
2022-12-25T06:44:25.679Z,10.88
2022-12-25T06:44:57.044Z,11.10
2022-12-25T06:45:28.412Z,11.75
2022-12-25T06:46:03.721Z,12.73
2022-12-25T06:46:35.160Z,9.32
2022-12-25T06:47:06.539Z,12.50
2022-12-25T06:47:37.957Z,11.60
2022-12-25T06:48:09.318Z,10.32
2022-12-25T06:48:41.118Z,11.57
2022-12-25T06:49:12.727Z,10.67
2022-12-25T06:49:44.122Z,11.60
2022-12-25T06:50:15.543Z,9.27
2022-12-25T06:50:46.877Z,12.95
2022-12-25T06:51:19.100Z,9.43
2022-12-25T06:51:50.477Z,11.15
2022-12-25T06:52:21.796Z,11.63
2022-12-25T06:52:53.152Z,11.23
2022-12-25T06:53:24.486Z,10.63
2022-12-25T06:53:55.983Z,9.15
2022-12-25T06:54:27.385Z,10.57
2022-12-25T06:54:58.782Z,10.13
2022-12-25T06:55:30.118Z,10.75
2022-12-25T06:56:05.512Z,9.80
2022-12-25T06:56:37.104Z,10.43
2022-12-25T06:57:08.517Z,10.95
2022-12-25T06:57:39.883Z,10.77
2022-12-25T06:58:11.286Z,11.20
2022-12-25T06:58:43.622Z,9.75
2022-12-25T06:59:14.992Z,9.93
2022-12-25T06:59:51.256Z,8.60
2022-12-25T07:00:26.019Z,12.13
2022-12-25T07:00:57.492Z,11.82
2022-12-25T07:01:30.692Z,13.07
2022-12-25T07:02:02.234Z,11.43
2022-12-25T07:02:34.738Z,12.88
2022-12-25T07:03:06.333Z,10.52
2022-12-25T07:03:37.726Z,11.35
2022-12-25T07:04:32.472Z,10.98